createdAt,value
2023-06-18T00:01:29.847Z,63.98
2023-06-18T00:04:18.592Z,63.86
2023-06-18T00:07:08.157Z,63.88
2023-06-18T00:09:56.654Z,63.90
2023-06-18T00:12:45.177Z,63.79
2023-06-18T00:15:34.363Z,63.76
2023-06-18T00:18:24.268Z,64.17
2023-06-18T00:21:13.501Z,64.52
2023-06-18T00:24:02.083Z,64.67
2023-06-18T00:26:50.597Z,65.11
2023-06-18T00:29:41.532Z,65.09
2023-06-18T00:32:30.394Z,65.07
2023-06-18T00:35:20.349Z,65.47
2023-06-18T00:38:08.903Z,65.20
2023-06-18T00:40:57.455Z,64.88
2023-06-18T00:43:45.957Z,64.68
2023-06-18T00:46:36.540Z,63.85
2023-06-18T00:49:25.621Z,64.32
2023-06-18T00:52:15.930Z,64.11
2023-06-18T00:55:05.183Z,64.29
2023-06-18T00:58:00.612Z,64.14
2023-06-18T01:00:49.427Z,64.65
2023-06-18T01:03:38.807Z,64.96
2023-06-18T01:06:28.124Z,65.14
2023-06-18T01:09:20.346Z,65.09
2023-06-18T01:12:10.321Z,66.28
2023-06-18T01:14:59.268Z,65.69
2023-06-18T01:17:50.251Z,65.53
2023-06-18T01:20:42.059Z,64.86
2023-06-18T01:23:35.781Z,65.60
2023-06-18T01:26:27.709Z,65.75
2023-06-18T01:29:17.921Z,66.10
2023-06-18T01:32:07.188Z,66.40
2023-06-18T01:34:55.833Z,66.74
2023-06-18T01:37:51.260Z,66.81
2023-06-18T01:40:47.206Z,67.07
2023-06-18T01:43:40.425Z,67.31
2023-06-18T01:46:30.903Z,68.13
2023-06-18T01:49:21.596Z,68.79
2023-06-18T01:52:10.269Z,69.37
2023-06-18T01:55:00.538Z,69.85
2023-06-18T01:57:49.715Z,69.78
2023-06-18T02:00:39.578Z,69.77
2023-06-18T02:03:28.217Z,69.96
2023-06-18T02:06:16.857Z,68.87
2023-06-18T02:09:06.253Z,69.10
2023-06-18T02:11:54.805Z,68.49
2023-06-18T02:14:43.361Z,68.26
2023-06-18T02:17:33.207Z,68.36
2023-06-18T02:20:22.063Z,69.29
2023-06-18T02:23:11.122Z,69.53
2023-06-18T02:25:59.981Z,70.88
2023-06-18T02:28:48.533Z,71.16
2023-06-18T02:31:37.042Z,71.48
2023-06-18T02:34:28.429Z,71.27
2023-06-18T02:37:17.604Z,71.67
2023-06-18T02:40:07.584Z,71.74
2023-06-18T02:42:57.879Z,71.79
2023-06-18T02:45:46.390Z,71.89
2023-06-18T02:48:35.137Z,73.39
2023-06-18T02:51:25.500Z,76.42
2023-06-18T02:54:14.193Z,77.68
2023-06-18T02:57:02.683Z,77.51
2023-06-18T02:59:51.189Z,77.80
2023-06-18T03:02:40.261Z,78.60
2023-06-18T03:05:28.843Z,78.21
2023-06-18T03:08:19.775Z,77.69
2023-06-18T03:11:08.381Z,77.12
2023-06-18T03:13:56.919Z,75.87
2023-06-18T03:16:46.123Z,75.97
2023-06-18T03:19:34.628Z,75.41
2023-06-18T03:22:23.187Z,74.96
2023-06-18T03:25:13.660Z,74.86
2023-06-18T03:28:02.186Z,74.67
2023-06-18T03:30:50.793Z,74.43
2023-06-18T03:33:39.270Z,74.59
2023-06-18T03:36:27.778Z,75.33
2023-06-18T03:39:17.143Z,75.75
2023-06-18T03:42:07.400Z,76.41
2023-06-18T03:44:56.291Z,76.51
2023-06-18T03:47:44.913Z,76.55
2023-06-18T03:50:33.806Z,76.36
2023-06-18T03:53:22.376Z,75.49
2023-06-18T03:56:10.924Z,74.79
2023-06-18T03:59:00.965Z,75.10
2023-06-18T04:01:49.517Z,75.52
2023-06-18T04:04:41.428Z,75.99
2023-06-18T04:07:29.888Z,75.72
2023-06-18T04:10:18.450Z,75.50
2023-06-18T04:13:07.145Z,75.37
2023-06-18T04:15:57.029Z,75.53
2023-06-18T04:18:45.604Z,75.88
2023-06-18T04:21:36.068Z,76.99
2023-06-18T04:24:24.619Z,76.57
2023-06-18T04:27:13.237Z,75.94
2023-06-18T04:30:01.771Z,75.83
2023-06-18T04:32:51.761Z,75.30
2023-06-18T04:35:40.343Z,75.41
2023-06-18T04:38:29.018Z,76.05
2023-06-18T04:41:17.582Z,76.57
2023-06-18T04:44:06.678Z,76.01
2023-06-18T04:46:55.216Z,75.57
2023-06-18T04:49:45.398Z,75.46
2023-06-18T04:52:33.961Z,75.60
2023-06-18T04:55:22.500Z,75.31
2023-06-18T04:58:11.234Z,74.65
2023-06-18T05:00:59.768Z,74.90
2023-06-18T05:03:48.367Z,73.50
2023-06-18T05:06:38.364Z,73.00
2023-06-18T05:09:28.369Z,70.79
2023-06-18T05:12:16.952Z,70.30
2023-06-18T05:15:06.213Z,69.23
2023-06-18T05:17:54.731Z,69.42
2023-06-18T05:20:43.671Z,69.37
2023-06-18T05:23:33.531Z,69.23
2023-06-18T05:26:22.327Z,69.17
2023-06-18T05:29:10.876Z,68.97
2023-06-18T05:31:59.683Z,68.40
2023-06-18T05:34:48.373Z,67.40
2023-06-18T05:37:36.875Z,67.11
2023-06-18T05:40:27.147Z,67.09
2023-06-18T05:43:16.129Z,66.63
2023-06-18T05:46:05.045Z,66.43
2023-06-18T05:48:54.132Z,66.22
2023-06-18T05:51:42.720Z,65.10
2023-06-18T05:54:31.254Z,64.37
2023-06-18T05:57:21.307Z,63.87
2023-06-18T06:00:11.262Z,63.55
2023-06-18T06:02:59.802Z,62.60
2023-06-18T06:05:48.357Z,62.62
2023-06-18T06:08:36.859Z,60.51
2023-06-18T06:11:25.571Z,59.00
2023-06-18T06:14:15.611Z,58.65
2023-06-18T06:17:04.507Z,59.04
2023-06-18T06:19:53.040Z,58.32
2023-06-18T06:22:41.607Z,57.19
2023-06-18T06:25:30.952Z,56.86
2023-06-18T06:28:19.439Z,55.23
2023-06-18T06:31:09.315Z,54.68
2023-06-18T06:33:58.042Z,55.64
2023-06-18T06:36:46.557Z,54.10
2023-06-18T06:39:35.169Z,54.77
2023-06-18T06:42:23.786Z,53.97
2023-06-18T06:45:12.807Z,53.92
2023-06-18T06:48:02.773Z,52.88
2023-06-18T06:50:51.380Z,52.14
2023-06-18T06:53:40.125Z,51.76
2023-06-18T06:56:28.673Z,50.57
2023-06-18T06:59:17.298Z,50.53
2023-06-18T07:02:05.962Z,50.84
2023-06-18T07:04:56.062Z,50.67
2023-06-18T07:07:44.632Z,50.17
2023-06-18T07:10:33.982Z,50.12
2023-06-18T07:13:22.816Z,49.91
2023-06-18T07:16:11.594Z,49.31
2023-06-18T07:19:00.203Z,47.67
2023-06-18T07:21:51.440Z,47.05
2023-06-18T07:24:40.014Z,46.23
2023-06-18T07:27:28.579Z,43.61
2023-06-18T07:30:17.398Z,43.14
2023-06-18T07:33:06.315Z,42.78
2023-06-18T07:35:54.872Z,41.48
2023-06-18T07:38:45.032Z,41.94
2023-06-18T07:41:33.857Z,40.31
2023-06-18T07:44:22.398Z,40.47
2023-06-18T07:47:11.014Z,39.82
2023-06-18T07:50:00.274Z,39.09
2023-06-18T07:52:49.139Z,38.89
2023-06-18T07:55:39.093Z,40.74
2023-06-18T07:58:27.845Z,40.16
2023-06-18T08:01:16.499Z,40.20
2023-06-18T08:04:05.579Z,40.13
2023-06-18T08:06:54.289Z,39.38
2023-06-18T08:09:42.866Z,38.93
2023-06-18T08:12:32.785Z,39.10
2023-06-18T08:15:21.484Z,41.79
2023-06-18T08:18:10.796Z,41.47
2023-06-18T08:20:59.647Z,41.74
2023-06-18T08:23:48.279Z,41.70
2023-06-18T08:26:36.862Z,42.33
2023-06-18T08:29:26.860Z,41.90
2023-06-18T08:32:15.666Z,41.72
2023-06-18T08:35:04.456Z,42.27
2023-06-18T08:37:52.992Z,42.83
2023-06-18T08:40:51.028Z,42.35
2023-06-18T08:43:39.802Z,42.55
2023-06-18T08:46:31.089Z,42.53
2023-06-18T08:49:20.244Z,42.26
2023-06-18T08:52:11.432Z,41.46
2023-06-18T08:55:03.225Z,41.82
2023-06-18T08:57:57.054Z,41.03
2023-06-18T09:00:45.799Z,41.02
2023-06-18T09:03:37.995Z,40.17
2023-06-18T09:06:26.951Z,40.07
2023-06-18T09:09:15.581Z,39.61
2023-06-18T09:12:04.375Z,39.37
2023-06-18T09:14:52.975Z,39.47
2023-06-18T09:17:42.108Z,40.05
2023-06-18T09:20:34.085Z,38.93
2023-06-18T09:23:27.298Z,38.70
2023-06-18T09:26:18.715Z,38.20
2023-06-18T09:29:07.741Z,35.57
2023-06-18T09:31:56.516Z,35.21
2023-06-18T09:34:45.268Z,33.87
2023-06-18T09:37:35.180Z,35.20
2023-06-18T09:40:26.864Z,34.80
2023-06-18T09:43:15.651Z,34.04
2023-06-18T09:46:08.354Z,33.71
2023-06-18T09:48:57.590Z,32.61
2023-06-18T09:51:46.769Z,30.98
2023-06-18T09:54:41.900Z,30.26
2023-06-18T09:57:32.800Z,29.80
2023-06-18T10:00:22.313Z,30.04
2023-06-18T10:03:11.030Z,29.51
2023-06-18T10:06:12.545Z,29.41
2023-06-18T10:09:01.470Z,28.58
2023-06-18T10:11:53.863Z,29.04
2023-06-18T10:14:43.064Z,28.29
2023-06-18T10:17:37.032Z,27.71
2023-06-18T10:20:26.731Z,27.85
2023-06-18T10:23:15.591Z,27.48
2023-06-18T10:26:04.389Z,27.47
2023-06-18T10:28:54.484Z,28.33
2023-06-18T10:31:43.946Z,27.05
2023-06-18T10:34:33.055Z,26.00
2023-06-18T10:37:23.654Z,26.12
2023-06-18T10:40:13.705Z,26.32
2023-06-18T10:43:06.105Z,25.15
2023-06-18T10:46:17.821Z,24.82
2023-06-18T10:49:17.298Z,24.68
2023-06-18T10:52:30.756Z,24.27
2023-06-18T10:55:31.700Z,24.46
2023-06-18T10:58:33.256Z,23.97
2023-06-18T11:01:27.246Z,23.73
2023-06-18T11:04:19.869Z,23.84
2023-06-18T11:07:15.975Z,24.43
2023-06-18T11:10:06.898Z,23.78
2023-06-18T11:12:56.506Z,24.44
2023-06-18T11:15:57.481Z,24.04
2023-06-18T11:18:47.933Z,24.47
2023-06-18T11:21:37.268Z,24.50
2023-06-18T11:24:25.996Z,24.52
2023-06-18T11:27:15.038Z,24.81
2023-06-18T11:30:03.654Z,23.94
2023-06-18T11:32:52.578Z,24.13
2023-06-18T11:35:42.574Z,24.25
2023-06-18T11:38:32.392Z,23.74
2023-06-18T11:41:22.234Z,24.24
2023-06-18T11:44:10.869Z,24.54
2023-06-18T11:47:02.147Z,23.92
2023-06-18T11:49:53.207Z,23.31
2023-06-18T11:52:44.187Z,23.42
2023-06-18T11:55:33.454Z,23.60
2023-06-18T11:58:22.176Z,23.72
2023-06-18T12:01:10.772Z,23.15
2023-06-18T12:04:06.579Z,23.71
2023-06-18T12:06:55.602Z,23.37
2023-06-18T12:09:46.334Z,23.46
2023-06-18T12:12:39.328Z,23.12
2023-06-18T12:15:42.227Z,23.69
2023-06-18T12:18:34.546Z,24.17
2023-06-18T12:21:23.416Z,24.61
2023-06-18T12:24:12.020Z,24.05
2023-06-18T12:27:02.045Z,24.72
2023-06-18T12:29:51.264Z,24.57
2023-06-18T12:32:40.360Z,24.41
2023-06-18T12:35:29.478Z,24.12
2023-06-18T12:38:17.981Z,23.86
2023-06-18T12:41:06.622Z,24.34
2023-06-18T12:43:56.768Z,24.41
2023-06-18T12:46:46.196Z,24.03
2023-06-18T12:49:39.265Z,23.51
2023-06-18T12:52:28.286Z,24.20
2023-06-18T12:55:17.872Z,23.79
2023-06-18T12:58:16.389Z,24.38
2023-06-18T13:01:06.668Z,25.38
2023-06-18T13:03:56.313Z,23.82
2023-06-18T13:06:46.208Z,23.41
2023-06-18T13:09:35.513Z,24.63
2023-06-18T13:12:26.066Z,23.54
2023-06-18T13:15:15.977Z,23.19
2023-06-18T13:18:06.216Z,23.30
2023-06-18T13:20:55.910Z,22.80
2023-06-18T13:23:44.778Z,23.09
2023-06-18T13:26:33.396Z,23.29
2023-06-18T13:29:22.916Z,23.58
2023-06-18T13:32:11.469Z,23.92
2023-06-18T13:35:01.498Z,24.01
2023-06-18T13:37:51.264Z,24.51
2023-06-18T13:40:40.105Z,24.58
2023-06-18T13:43:28.846Z,24.51
2023-06-18T13:46:17.760Z,24.68
2023-06-18T13:49:06.431Z,25.40
2023-06-18T13:51:56.373Z,24.76
2023-06-18T13:54:45.212Z,23.70
2023-06-18T13:57:33.767Z,24.44
2023-06-18T14:00:22.601Z,23.57
2023-06-18T14:03:11.410Z,24.40
2023-06-18T14:06:00.156Z,23.61
2023-06-18T14:08:52.009Z,23.62
2023-06-18T14:11:40.682Z,23.17
2023-06-18T14:14:29.331Z,23.32
2023-06-18T14:17:17.945Z,23.68
2023-06-18T14:20:07.564Z,22.86
2023-06-18T14:22:56.888Z,22.54
2023-06-18T14:25:47.034Z,22.41
2023-06-18T14:28:36.143Z,22.46
2023-06-18T14:31:24.818Z,22.97
2023-06-18T14:34:15.065Z,22.80
2023-06-18T14:39:52.561Z,23.72
2023-06-18T14:42:43.479Z,24.32
2023-06-18T14:45:32.053Z,23.17
2023-06-18T14:48:21.133Z,24.08
2023-06-18T14:51:09.669Z,23.46
2023-06-18T14:54:04.585Z,24.03
2023-06-18T14:56:53.835Z,23.92
2023-06-18T14:59:43.936Z,24.21
2023-06-18T15:02:32.686Z,24.15
2023-06-18T15:05:21.813Z,23.93
2023-06-18T15:08:10.813Z,25.00
2023-06-18T15:10:59.324Z,24.18
2023-06-18T15:13:47.853Z,24.05
2023-06-18T15:16:37.890Z,24.01
2023-06-18T15:19:26.525Z,24.02
2023-06-18T15:22:15.919Z,24.35
2023-06-18T15:25:04.796Z,22.79
2023-06-18T15:27:53.346Z,23.76
2023-06-18T15:30:41.894Z,23.30
2023-06-18T15:33:31.749Z,23.30
2023-06-18T15:36:20.494Z,23.14
2023-06-18T15:39:11.346Z,23.54
2023-06-18T15:41:59.909Z,24.83
2023-06-18T15:44:48.592Z,24.37
2023-06-18T15:47:37.133Z,24.51
2023-06-18T15:50:27.317Z,23.86
2023-06-18T15:53:16.418Z,23.80
2023-06-18T15:56:05.457Z,24.20
2023-06-18T15:58:53.982Z,23.16
2023-06-18T16:01:42.655Z,23.78
2023-06-18T16:04:31.388Z,23.19
2023-06-18T16:07:21.327Z,23.10
2023-06-18T16:10:10.709Z,23.66
2023-06-18T16:12:59.291Z,23.70
2023-06-18T16:15:47.912Z,24.15
2023-06-18T16:18:36.509Z,23.52
2023-06-18T16:21:25.094Z,23.38
2023-06-18T16:24:15.096Z,23.73
2023-06-18T16:27:04.318Z,24.08
2023-06-18T16:29:53.947Z,24.71
2023-06-18T16:32:42.568Z,25.07
2023-06-18T16:35:31.326Z,26.01
2023-06-18T16:38:19.886Z,25.65
2023-06-18T16:41:09.812Z,25.45
2023-06-18T16:43:58.336Z,24.84
2023-06-18T16:46:46.858Z,26.18
2023-06-18T16:49:35.984Z,26.45
2023-06-18T16:52:24.705Z,26.38
2023-06-18T16:55:13.386Z,26.08
2023-06-18T16:58:03.288Z,26.33
2023-06-18T17:00:51.867Z,26.50
2023-06-18T17:03:40.555Z,26.71
2023-06-18T17:06:29.099Z,27.52
2023-06-18T17:09:18.797Z,27.03
2023-06-18T17:12:08.405Z,27.22
2023-06-18T17:14:58.331Z,27.07
2023-06-18T17:17:46.881Z,26.51
2023-06-18T17:20:35.754Z,27.12
2023-06-18T17:23:24.422Z,26.62
2023-06-18T17:26:13.604Z,27.04
2023-06-18T17:29:02.376Z,27.62
2023-06-18T17:31:54.382Z,27.52
2023-06-18T17:34:42.943Z,27.84
2023-06-18T17:37:31.703Z,28.22
2023-06-18T17:40:20.262Z,28.89
2023-06-18T17:43:08.926Z,28.89
2023-06-18T17:46:11.400Z,29.14
2023-06-18T17:49:02.677Z,29.73
2023-06-18T17:51:51.471Z,30.04
2023-06-18T17:54:39.962Z,30.38
2023-06-18T17:57:28.462Z,29.99
2023-06-18T18:00:17.650Z,29.97
2023-06-18T18:03:06.409Z,30.15
2023-06-18T18:05:56.279Z,32.46
2023-06-18T18:08:49.146Z,33.15
2023-06-18T18:11:37.790Z,33.62
2023-06-18T18:14:26.380Z,34.59
2023-06-18T18:17:14.966Z,34.13
2023-06-18T18:20:03.558Z,35.88
2023-06-18T18:22:53.441Z,37.20
2023-06-18T18:25:42.075Z,37.09
2023-06-18T18:28:30.659Z,37.52
2023-06-18T18:31:19.293Z,38.10
2023-06-18T18:34:07.891Z,38.21
2023-06-18T18:36:56.400Z,38.83
2023-06-18T18:39:46.393Z,39.79
2023-06-18T18:42:35.814Z,40.69
2023-06-18T18:45:24.496Z,40.90
2023-06-18T18:48:13.687Z,41.30
2023-06-18T18:51:02.342Z,40.85
2023-06-18T18:53:51.619Z,41.39
2023-06-18T18:56:41.784Z,41.60
2023-06-18T18:59:30.334Z,40.92
2023-06-18T19:02:19.061Z,40.89
2023-06-18T19:05:08.656Z,41.21
2023-06-18T19:07:57.245Z,41.12
2023-06-18T19:10:45.971Z,41.27
2023-06-18T19:13:35.934Z,41.03
2023-06-18T19:16:25.609Z,41.99
2023-06-18T19:19:14.294Z,42.13
2023-06-18T19:22:02.935Z,42.12
2023-06-18T19:24:51.968Z,41.90
2023-06-18T19:27:41.307Z,42.64
2023-06-18T19:30:31.256Z,41.76
2023-06-18T19:33:19.885Z,42.36
2023-06-18T19:36:08.730Z,43.15
2023-06-18T19:38:57.936Z,42.56
2023-06-18T19:41:46.513Z,42.99
2023-06-18T19:44:35.272Z,43.84
2023-06-18T19:47:25.387Z,43.84
2023-06-18T19:50:14.004Z,43.91
2023-06-18T19:53:02.663Z,43.90
2023-06-18T19:55:51.714Z,44.05
2023-06-18T19:58:40.216Z,44.42
2023-06-18T20:01:28.935Z,44.95
2023-06-18T20:04:19.078Z,45.25
2023-06-18T20:07:07.938Z,45.59
2023-06-18T20:09:56.612Z,45.99
2023-06-18T20:12:45.534Z,45.80
2023-06-18T20:15:36.076Z,46.54
2023-06-18T20:18:24.830Z,46.79
2023-06-18T20:21:14.853Z,46.83
2023-06-18T20:24:03.516Z,47.28
2023-06-18T20:26:52.309Z,47.39
2023-06-18T20:29:40.941Z,47.98
2023-06-18T20:32:29.592Z,47.72
2023-06-18T20:35:18.408Z,47.88
2023-06-18T20:38:08.687Z,47.52
2023-06-18T20:40:57.296Z,47.43
2023-06-18T20:43:45.992Z,47.15
2023-06-18T20:46:34.649Z,47.41
2023-06-18T20:49:23.292Z,47.78
2023-06-18T20:52:12.898Z,47.69
2023-06-18T20:55:02.866Z,47.76
2023-06-18T20:57:51.369Z,47.75
2023-06-18T21:00:39.955Z,48.67
2023-06-18T21:03:28.926Z,48.79
2023-06-18T21:06:18.277Z,48.80
2023-06-18T21:09:06.766Z,48.94
2023-06-18T21:11:56.705Z,49.16
2023-06-18T21:14:45.221Z,50.08
2023-06-18T21:17:33.840Z,50.05
2023-06-18T21:20:24.345Z,50.06
2023-06-18T21:23:13.867Z,50.28
2023-06-18T21:26:02.501Z,51.14
2023-06-18T21:28:52.425Z,51.91
2023-06-18T21:31:40.945Z,52.17
2023-06-18T21:34:29.469Z,52.32
2023-06-18T21:37:18.062Z,53.15
2023-06-18T21:40:08.008Z,52.97
2023-06-18T21:42:56.588Z,51.02
2023-06-18T21:45:48.179Z,51.44
2023-06-18T21:48:36.782Z,51.79
2023-06-18T21:51:25.896Z,50.90
2023-06-18T21:54:14.459Z,49.50
2023-06-18T21:57:03.025Z,48.85
2023-06-18T21:59:51.609Z,48.30
2023-06-18T22:02:41.823Z,47.74
2023-06-18T22:05:31.632Z,47.53
2023-06-18T22:08:24.917Z,47.52
2023-06-18T22:11:14.262Z,47.51
2023-06-18T22:14:02.779Z,47.40
2023-06-18T22:16:51.298Z,47.50
2023-06-18T22:19:41.211Z,47.35
2023-06-18T22:22:29.757Z,47.69
2023-06-18T22:25:18.444Z,47.91
2023-06-18T22:28:07.049Z,47.82
2023-06-18T22:30:55.599Z,48.01
2023-06-18T22:33:44.117Z,48.32
2023-06-18T22:36:34.054Z,48.23
2023-06-18T22:39:23.726Z,48.26
2023-06-18T22:42:12.431Z,48.44
2023-06-18T22:45:00.949Z,48.68
2023-06-18T22:47:49.584Z,49.55
2023-06-18T22:50:38.674Z,50.37
2023-06-18T22:53:30.671Z,51.35
2023-06-18T22:56:19.228Z,51.42
2023-06-18T22:59:07.866Z,51.97
2023-06-18T23:01:56.469Z,52.38
2023-06-18T23:04:44.976Z,53.01
2023-06-18T23:07:34.758Z,53.69
2023-06-18T23:10:25.298Z,54.29
2023-06-18T23:13:14.373Z,54.52
2023-06-18T23:16:02.896Z,55.02
2023-06-18T23:18:52.357Z,55.58
2023-06-18T23:24:34.518Z,56.12
2023-06-18T23:27:24.454Z,56.36
2023-06-18T23:30:13.448Z,56.70
2023-06-18T23:33:02.245Z,56.75
2023-06-18T23:35:52.534Z,56.93
2023-06-18T23:38:44.184Z,57.73
2023-06-18T23:41:33.169Z,58.26
2023-06-18T23:44:23.026Z,58.32
2023-06-18T23:47:11.615Z,58.96
2023-06-18T23:50:00.599Z,59.49
2023-06-18T23:52:49.363Z,59.50
2023-06-18T23:55:38.729Z,59.55
2023-06-18T23:58:27.270Z,59.74
